Potsdam, New York
Current Conditions -  °F | °C
As of 8:53 AM on Thursday 27 Nov 2014 (Local Time) from KMSS Reporting Station
Overcast Overcast  
Wind Chill: 22°   Ceiling: 3200
Heat Index: 29°   Visibility: 10mi
Dew Point: 19°   Wind: 7mph
Humidity: 67%   Direction: 350°N
Pressure: 30.06"   Gusts: NA
Location:  44.67°N, 74.98°W
Report Text: KMSS 271353Z AUTO 35006KT 10SM OVC032 M02/M07 A3006 RMK AO2 SLP185 T10171072
Loading
Personal Weather Stations






























Interactive Weather Map New forecast layout! Learn more

10-Day Weather Forecast

Advertisements
Track Severe Weather on mobile